Time;durP1;ratioP1;P1;durP2;ratioP2;P2;SDS_P1;SDS_P2;PMS_P1;PMS_P2;Temp;Humidity;BMP_temperature;BMP_pressure;BME280_temperature;BME280_humidity;BME280_pressure;Samples;Min_cycle;Max_cycle;Signal;HPM_P1;HPM_P2
2022/01/19 00:03:36;;;;;;;92.18;51.15;;;;;;;-1.78;94.22;103078.75;10499777;28;20422;-78
2022/01/19 00:08:37;;;;;;;104.45;50.20;;;;;;;-1.81;93.99;103075.78;10500562;28;20052;-78
2022/01/19 00:13:38;;;;;;;84.72;48.95;;;;;;;-1.93;94.69;103087.88;10441103;28;20353;-78
2022/01/19 00:18:38;;;;;;;85.53;49.53;;;;;;;-2.06;94.67;103082.78;10486527;28;20111;-78
2022/01/19 00:23:39;;;;;;;89.15;47.85;;;;;;;-2.01;94.83;103070.53;10500004;28;20097;-78
2022/01/19 00:28:39;;;;;;;90.65;46.20;;;;;;;-2.27;94.09;103044.88;10498518;28;20059;-78
2022/01/19 00:33:40;;;;;;;77.43;42.42;;;;;;;-2.40;94.31;103011.53;10498821;28;20048;-78
2022/01/19 00:38:40;;;;;;;68.65;34.65;;;;;;;-2.43;94.22;102999.22;10499831;28;20411;-78
2022/01/19 00:43:41;;;;;;;83.50;40.85;;;;;;;-2.49;94.29;103012.88;10482300;28;20040;-78
2022/01/19 00:48:41;;;;;;;84.45;43.63;;;;;;;-2.62;94.58;103031.72;10497993;28;20068;-78
2022/01/19 00:53:42;;;;;;;66.80;39.42;;;;;;;-2.55;94.63;103031.84;10498199;28;20060;-78
2022/01/19 00:58:42;;;;;;;56.73;34.40;;;;;;;-2.48;94.68;103027.53;10499377;28;20102;-78
2022/01/19 01:03:43;;;;;;;36.75;25.35;;;;;;;-2.64;94.13;103017.78;10498190;28;20071;-78
2022/01/19 01:08:44;;;;;;;61.97;32.10;;;;;;;-2.48;94.24;102995.09;10497837;28;20052;-78
2022/01/19 01:18:57;;;;;;;51.67;32.78;;;;;;;-2.29;94.15;102967.72;10496961;28;20078;-78
2022/01/19 01:23:58;;;;;;;64.70;34.67;;;;;;;-2.24;94.50;102968.31;10497706;28;20166;-78
2022/01/19 01:28:58;;;;;;;104.47;52.00;;;;;;;-2.15;94.47;102976.34;10496179;28;20071;-78
2022/01/19 01:33:59;;;;;;;100.57;48.38;;;;;;;-2.29;94.31;102948.84;10498484;28;20362;-78
2022/01/19 01:39:00;;;;;;;92.18;53.30;;;;;;;-2.40;95.05;102924.34;10495052;28;20119;-78
2022/01/19 01:44:00;;;;;;;95.47;52.30;;;;;;;-2.48;94.63;102918.16;10497271;28;20087;-78
2022/01/19 01:49:01;;;;;;;78.38;34.95;;;;;;;-2.49;94.19;102913.75;10495258;28;20036;-78
2022/01/19 01:54:01;;;;;;;100.67;52.03;;;;;;;-2.36;94.97;102908.63;10495348;28;20121;-78
2022/01/19 01:59:02;;;;;;;95.65;46.60;;;;;;;-2.41;94.52;102919.94;10496672;28;20051;-78
2022/01/19 02:04:02;;;;;;;91.38;49.17;;;;;;;-2.58;95.09;102927.94;10494412;28;20127;-78
2022/01/19 02:25:08;;;;;;;61.65;29.17;;;;;;;-2.91;94.77;102868.88;10495176;28;20198;-78
2022/01/19 02:40:36;;;;;;;86.65;43.80;;;;;;;-2.78;94.81;102808.28;10495127;28;20171;-78
2022/01/19 02:50:57;;;;;;;96.30;45.38;;;;;;;-2.90;94.61;102765.66;10494702;28;20036;-78
2022/01/19 02:55:57;;;;;;;99.17;50.40;;;;;;;-2.60;95.24;102763.66;10494309;28;20059;-78
2022/01/19 03:11:34;;;;;;;101.70;48.70;;;;;;;-2.84;95.42;102763.88;10494042;28;20506;-78
2022/01/19 03:16:35;;;;;;;113.00;54.35;;;;;;;-2.83;95.33;102768.28;10501236;28;20028;-78
2022/01/19 03:21:36;;;;;;;115.03;57.00;;;;;;;-2.80;94.82;102778.94;10451416;28;20040;-78
2022/01/19 03:26:36;;;;;;;109.87;54.67;;;;;;;-2.72;95.63;102760.38;10501842;28;20067;-78
2022/01/19 03:31:37;;;;;;;76.90;43.28;;;;;;;-2.64;95.73;102756.28;10501154;28;20426;-78
2022/01/19 03:36:37;;;;;;;112.23;52.60;;;;;;;-2.43;95.33;102759.78;10500686;28;20139;-78
2022/01/19 03:41:38;;;;;;;106.22;53.92;;;;;;;-2.24;95.18;102752.81;10468051;28;20052;-78
2022/01/19 03:46:53;;;;;;;91.47;42.43;;;;;;;-1.99;95.27;102744.09;10500640;28;20033;-78
2022/01/19 03:51:58;;;;;;;112.30;61.13;;;;;;;-1.86;95.80;102738.88;10501314;28;20078;-78
2022/01/19 03:56:59;;;;;;;103.22;54.13;;;;;;;-1.74;95.70;102731.81;10500134;28;20455;-78
2022/01/19 04:02:00;;;;;;;121.10;59.22;;;;;;;-1.56;95.91;102724.59;10500774;28;20024;-78
2022/01/19 04:07:09;;;;;;;102.80;55.78;;;;;;;-1.43;95.74;102714.22;10459766;28;20498;-78
2022/01/19 04:12:13;;;;;;;107.90;58.45;;;;;;;-1.26;96.14;102706.06;10469128;28;20032;-78
2022/01/19 04:17:15;;;;;;;107.22;58.33;;;;;;;-1.18;96.18;102702.81;10483505;28;20384;-78
2022/01/19 04:22:18;;;;;;;125.15;60.33;;;;;;;-1.16;96.09;102690.13;10482095;28;20109;-78
2022/01/19 04:32:26;;;;;;;110.60;57.78;;;;;;;-1.03;96.50;102680.63;10483203;28;20055;-78
2022/01/19 04:37:38;;;;;;;119.97;58.00;;;;;;;-1.35;95.93;102681.06;10483610;28;20062;-78
2022/01/19 05:03:59;;;;;;;103.07;56.92;;;;;;;-2.13;95.71;102661.88;10483152;28;20040;-78
2022/01/19 05:09:11;;;;;;;100.35;55.65;;;;;;;-2.15;95.78;102648.81;10482295;28;20082;-78
2022/01/19 05:14:11;;;;;;;162.88;63.70;;;;;;;-2.24;94.79;102642.53;10497912;28;20032;-78
2022/01/19 05:19:12;;;;;;;108.85;51.17;;;;;;;-2.42;94.85;102646.22;10498653;28;20052;-78
2022/01/19 05:24:12;;;;;;;121.43;59.45;;;;;;;-2.39;95.26;102636.38;10496087;28;20384;-79
2022/01/19 05:29:13;;;;;;;79.27;37.40;;;;;;;-2.50;95.52;102622.16;10463057;28;20044;-78
2022/01/19 05:34:13;;;;;;;109.03;54.67;;;;;;;-2.52;95.02;102618.47;10480522;28;20063;-79
2022/01/19 05:39:14;;;;;;;115.10;54.90;;;;;;;-2.31;95.33;102625.44;10496009;28;20051;-78
2022/01/19 05:44:14;;;;;;;119.20;57.67;;;;;;;-2.12;95.18;102625.22;10496273;28;20036;-78
2022/01/19 05:49:15;;;;;;;117.70;57.47;;;;;;;-1.85;95.61;102622.63;10495055;28;20542;-78
2022/01/19 05:54:18;;;;;;;101.38;50.85;;;;;;;-1.73;95.86;102619.75;10479145;28;20119;-79
2022/01/19 05:59:18;;;;;;;127.47;59.13;;;;;;;-1.53;96.17;102607.75;10474035;28;20494;-78
2022/01/19 06:04:19;;;;;;;108.15;52.97;;;;;;;-1.44;95.31;102608.00;10474682;28;20066;-78
2022/01/19 06:09:34;;;;;;;108.53;53.40;;;;;;;-1.27;95.56;102610.06;10493666;28;20024;-78
2022/01/19 06:14:36;;;;;;;107.97;57.17;;;;;;;-1.17;96.29;102616.34;10478065;28;20036;-77
2022/01/19 06:19:36;;;;;;;101.10;50.42;;;;;;;-1.02;95.77;102619.88;10488234;28;20047;-78
2022/01/19 06:24:37;;;;;;;104.38;50.00;;;;;;;-0.94;95.59;102609.78;10492588;28;20480;-77
2022/01/19 06:29:38;;;;;;;122.28;57.85;;;;;;;-0.65;96.11;102609.84;10491386;28;20036;-78
2022/01/19 06:34:39;;;;;;;116.80;60.65;;;;;;;-0.48;96.54;102595.50;10470005;28;20029;-78
2022/01/19 06:39:39;;;;;;;110.43;55.05;;;;;;;-0.40;96.06;102597.34;10490055;28;20072;-78
2022/01/19 06:44:40;;;;;;;105.53;52.10;;;;;;;-0.42;95.91;102610.78;10475848;28;20399;-78
2022/01/19 06:49:41;;;;;;;112.63;53.28;;;;;;;-0.40;95.93;102604.16;10505917;28;20630;-78
2022/01/19 06:54:41;;;;;;;108.18;54.88;;;;;;;-0.21;96.38;102587.59;10518790;28;20093;-78
2022/01/19 06:59:42;;;;;;;93.18;48.78;;;;;;;-0.16;95.91;102570.13;10499438;28;20033;-78
2022/01/19 07:04:48;;;;;;;103.75;52.65;;;;;;;0.01;96.45;102571.19;10520859;28;20032;-78
2022/01/19 07:09:49;;;;;;;98.40;54.42;;;;;;;0.06;95.89;102558.13;10503303;28;20040;-78
2022/01/19 07:14:50;;;;;;;104.32;55.97;;;;;;;0.11;95.99;102566.38;10483151;28;20535;-78
2022/01/19 07:19:50;;;;;;;95.85;49.05;;;;;;;0.17;96.29;102556.78;10513047;28;20119;-78
2022/01/19 07:24:51;;;;;;;98.10;48.63;;;;;;;0.29;96.36;102547.00;10496906;28;20028;-80
2022/01/19 07:29:51;;;;;;;87.40;49.83;;;;;;;0.34;95.89;102539.81;10507368;28;20122;-77
2022/01/19 07:34:52;;;;;;;94.65;51.03;;;;;;;0.47;96.25;102535.31;10502058;28;20499;-74
2022/01/19 07:39:53;;;;;;;80.05;44.95;;;;;;;0.53;95.99;102537.72;10512537;28;20071;-77
2022/01/19 07:44:54;;;;;;;71.53;38.20;;;;;;;0.58;95.77;102536.56;10502925;28;20067;-80
2022/01/19 07:49:57;;;;;;;75.38;38.08;;;;;;;0.59;95.54;102535.84;10487023;28;20124;-79
2022/01/19 07:54:57;;;;;;;66.20;34.90;;;;;;;0.63;95.20;102526.78;10452659;28;20048;-81
2022/01/19 07:59:58;;;;;;;60.30;34.85;;;;;;;0.65;94.65;102520.13;10497343;28;20476;-79
2022/01/19 08:04:59;;;;;;;58.22;32.38;;;;;;;0.71;94.85;102516.63;10467145;28;20110;-80
2022/01/19 08:10:00;;;;;;;70.25;31.90;;;;;;;0.76;94.54;102493.94;10498110;28;20028;-82
2022/01/19 08:15:00;;;;;;;55.13;32.30;;;;;;;0.80;93.85;102496.09;10492582;28;20043;-79
2022/01/19 08:20:01;;;;;;;45.95;29.55;;;;;;;0.86;94.35;102504.53;10494215;28;20032;-78
2022/01/19 08:25:01;;;;;;;52.15;30.63;;;;;;;0.88;93.61;102495.31;10495114;28;20442;-79
2022/01/19 08:30:04;;;;;;;48.17;29.02;;;;;;;0.94;94.04;102489.00;10489436;28;20039;-80
2022/01/19 08:35:05;;;;;;;47.55;29.90;;;;;;;0.92;93.38;102491.44;10508595;28;20072;-79
2022/01/19 08:40:07;;;;;;;44.53;25.80;;;;;;;0.98;92.98;102489.53;10512481;28;20094;-78
2022/01/19 08:45:08;;;;;;;46.63;27.27;;;;;;;1.07;92.07;102481.00;10485325;28;20066;-79
2022/01/19 08:50:10;;;;;;;41.35;25.30;;;;;;;1.05;92.66;102473.09;10512524;28;20040;-79
2022/01/19 08:55:11;;;;;;;45.65;24.98;;;;;;;1.11;92.29;102476.34;10517151;28;20024;-78
2022/01/19 09:00:13;;;;;;;37.78;25.25;;;;;;;1.13;92.08;102467.13;10506012;28;20384;-79
2022/01/19 09:05:17;;;;;;;39.35;27.45;;;;;;;1.14;91.74;102456.06;10489627;28;20027;-79
2022/01/19 09:10:21;;;;;;;39.72;23.55;;;;;;;1.16;91.95;102457.16;10488178;28;20058;-79
2022/01/19 09:15:23;;;;;;;37.53;25.33;;;;;;;1.35;91.99;102448.88;10502134;28;20650;-76
2022/01/19 09:20:24;;;;;;;41.30;25.37;;;;;;;1.50;91.77;102443.56;10523243;28;20111;-79
2022/01/19 09:25:32;;;;;;;35.10;20.23;;;;;;;1.49;90.38;102446.88;10518459;28;20039;-79
2022/01/19 09:30:33;;;;;;;37.35;24.30;;;;;;;1.50;89.89;102444.47;10504594;28;20020;-79
2022/01/19 09:35:51;;;;;;;35.00;21.63;;;;;;;1.74;88.95;102435.91;10493140;28;20063;-79
2022/01/19 09:40:54;;;;;;;29.67;19.42;;;;;;;1.81;89.55;102432.34;10453951;28;20073;-79
2022/01/19 09:45:56;;;;;;;42.70;26.05;;;;;;;1.99;88.38;102427.31;10455011;28;20477;-79
2022/01/19 09:50:56;;;;;;;41.35;25.40;;;;;;;2.07;88.94;102412.63;10468146;28;20026;-78
2022/01/19 09:55:57;;;;;;;29.25;19.15;;;;;;;2.15;87.98;102407.53;10519130;28;20032;-79
2022/01/19 10:00:57;;;;;;;30.65;19.25;;;;;;;2.20;87.57;102398.63;10500376;28;20111;-79
2022/01/19 10:06:05;;;;;;;31.13;19.85;;;;;;;2.19;87.40;102390.69;10496754;28;20533;-78
2022/01/19 10:11:07;;;;;;;27.70;19.50;;;;;;;2.15;86.45;102381.72;10495313;28;20048;-78
2022/01/19 10:21:30;;;;;;;27.23;19.35;;;;;;;2.12;86.09;102378.81;10529724;28;19912;-79
2022/01/19 10:26:33;;;;;;;33.85;21.13;;;;;;;2.13;86.27;102365.13;10476069;28;20024;-79
2022/01/19 10:31:35;;;;;;;27.25;17.50;;;;;;;2.16;86.08;102361.94;10519535;28;20071;-79
2022/01/19 10:36:55;;;;;;;31.35;19.80;;;;;;;2.16;85.70;102360.28;10537509;28;20467;-79
2022/01/19 10:42:11;;;;;;;32.35;19.67;;;;;;;2.21;85.64;102347.84;10511139;28;20052;-79
2022/01/19 10:47:12;;;;;;;31.42;19.98;;;;;;;2.23;84.93;102343.75;10497155;28;20060;-78
2022/01/19 10:52:33;;;;;;;31.63;20.27;;;;;;;2.31;85.02;102334.22;10506614;28;20068;-78
2022/01/19 10:57:35;;;;;;;28.05;17.73;;;;;;;2.37;84.38;102321.97;10525577;28;20460;-79
2022/01/19 11:02:36;;;;;;;;;;;;;;;2.38;84.88;102320.28;10514082;28;20043;-79
2022/01/19 11:07:36;;;;;;;30.48;19.45;;;;;;;2.39;84.55;102310.09;10532831;28;19912;-79
2022/01/19 11:12:49;;;;;;;29.38;19.70;;;;;;;2.43;84.57;102299.34;10501441;28;20025;-79
2022/01/19 11:17:49;;;;;;;31.02;19.35;;;;;;;2.51;84.20;102287.19;10479891;28;20025;-79
2022/01/19 11:23:16;;;;;;;33.78;22.23;;;;;;;2.56;83.91;102274.75;10494015;28;20115;-79
2022/01/19 11:28:28;;;;;;;31.10;20.98;;;;;;;2.63;83.82;102272.03;10494006;28;20055;-79
2022/01/19 11:33:29;;;;;;;30.55;18.60;;;;;;;2.67;82.73;102278.41;10491142;28;20089;-79
2022/01/19 11:38:34;;;;;;;32.55;18.75;;;;;;;2.68;83.22;102257.91;10499650;28;20047;-79
2022/01/19 11:43:37;;;;;;;34.15;22.20;;;;;;;2.70;83.44;102253.81;10497112;28;20440;-78
2022/01/19 11:48:39;;;;;;;28.30;19.77;;;;;;;2.69;83.44;102241.63;10498703;28;20472;-78
2022/01/19 11:53:58;;;;;;;27.52;18.38;;;;;;;2.72;82.35;102230.69;10496242;28;20109;-79
2022/01/19 11:59:07;;;;;;;26.02;16.08;;;;;;;2.66;82.47;102222.31;10480098;28;20086;-78
2022/01/19 12:04:18;;;;;;;35.03;20.42;;;;;;;2.53;83.09;102226.22;10487071;28;20044;-78
2022/01/19 12:09:19;;;;;;;33.63;21.85;;;;;;;2.48;83.78;102220.59;10515203;28;20024;-78
2022/01/19 12:14:34;;;;;;;36.00;20.02;;;;;;;2.51;83.78;102199.31;10517921;28;20063;-78
2022/01/19 12:19:42;;;;;;;32.85;20.77;;;;;;;2.46;84.25;102185.94;10475110;28;20027;-78
2022/01/19 12:25:06;;;;;;;34.42;23.25;;;;;;;2.48;84.71;102189.59;10512275;28;20070;-78
2022/01/19 12:30:09;;;;;;;29.73;20.45;;;;;;;2.54;84.45;102173.78;10532370;28;20032;-79
2022/01/19 12:35:37;;;;;;;30.67;17.55;;;;;;;2.55;84.27;102161.78;10527311;28;20028;-79
2022/01/19 12:40:42;;;;;;;35.35;22.35;;;;;;;2.57;84.16;102168.91;10540272;28;20559;-79
2022/01/19 12:45:50;;;;;;;36.92;22.42;;;;;;;2.51;84.71;102151.88;10525066;28;20495;-79
2022/01/19 12:50:51;;;;;;;36.25;21.75;;;;;;;2.45;85.16;102144.41;10525993;28;20073;-79
2022/01/19 12:56:03;;;;;;;37.67;23.40;;;;;;;2.43;85.00;102136.53;10524212;28;20594;-79
2022/01/19 13:01:06;;;;;;;36.75;23.10;;;;;;;2.40;85.73;102143.03;10483147;28;20383;-79
2022/01/19 13:06:09;;;;;;;40.25;24.88;;;;;;;2.34;85.73;102130.44;10480916;28;20020;-79
2022/01/19 13:11:21;;;;;;;50.13;28.60;;;;;;;2.38;85.81;102116.13;10465423;28;20028;-78
2022/01/19 13:16:25;;;;;;;;;;;;;;;2.39;85.95;102103.38;10506349;28;20028;-79
2022/01/19 13:21:26;;;;;;;46.05;28.10;;;;;;;2.42;85.93;102087.25;10515374;28;19947;-79
2022/01/19 13:26:48;;;;;;;44.47;27.42;;;;;;;2.44;86.48;102081.50;10498144;28;20024;-79
2022/01/19 13:32:06;;;;;;;44.10;30.70;;;;;;;2.45;86.68;102075.56;10509071;28;20044;-79
2022/01/19 13:37:06;;;;;;;43.08;27.58;;;;;;;2.45;86.53;102067.81;10483273;28;20024;-80
2022/01/19 13:42:07;;;;;;;45.58;26.73;;;;;;;2.53;86.16;102054.75;10525979;28;20047;-79
2022/01/19 13:47:15;;;;;;;52.92;32.78;;;;;;;2.53;86.14;102040.13;10512856;28;20468;-80
2022/01/19 13:52:19;;;;;;;42.83;29.30;;;;;;;2.54;86.06;102047.13;10520742;28;20031;-80
2022/01/19 13:57:29;;;;;;;45.70;27.52;;;;;;;2.53;85.93;102031.47;10516858;28;20467;-82
2022/01/19 14:02:30;;;;;;;47.92;27.90;;;;;;;2.51;86.50;102027.84;10494201;28;20083;-84
2022/01/19 14:07:31;;;;;;;43.50;29.02;;;;;;;2.55;86.48;102017.03;10508983;28;20040;-84
2022/01/19 14:12:32;;;;;;;41.25;28.50;;;;;;;2.58;86.00;102015.66;10494846;28;20067;-85
2022/01/19 14:17:36;;;;;;;41.25;28.45;;;;;;;2.62;85.94;102022.94;10490877;28;20060;-81
2022/01/19 14:22:37;;;;;;;49.05;26.75;;;;;;;2.61;86.64;102022.81;10490815;28;20035;-82
2022/01/19 14:28:08;;;;;;;43.53;27.83;;;;;;;2.66;86.27;102018.06;10513549;28;20441;-81
2022/01/19 14:33:11;;;;;;;39.78;27.55;;;;;;;2.69;85.92;102010.63;10487349;28;20052;-85
2022/01/19 14:38:36;;;;;;;48.13;28.92;;;;;;;2.61;86.44;102005.63;10496274;28;20027;-86
2022/01/19 14:43:50;;;;;;;51.67;30.27;;;;;;;2.41;87.69;101989.81;10466076;28;20466;-82
2022/01/19 14:48:51;;;;;;;43.10;30.55;;;;;;;2.41;87.91;101976.91;10484101;28;20020;-83
2022/01/19 14:53:54;;;;;;;55.05;34.15;;;;;;;2.32;88.40;101984.66;10457364;28;20035;-80
2022/01/19 14:59:17;;;;;;;62.13;33.63;;;;;;;2.27;89.36;101975.56;10448958;28;20535;-80
2022/01/19 15:04:20;;;;;;;57.50;34.72;;;;;;;2.26;89.10;101966.88;10470830;28;20029;-79
2022/01/19 15:09:40;;;;;;;56.78;35.20;;;;;;;2.23;89.90;101963.09;10468710;28;20033;-79
2022/01/19 15:14:41;;;;;;;70.20;44.15;;;;;;;2.20;89.93;101974.94;10512863;28;20029;-81
2022/01/19 15:19:43;;;;;;;55.85;37.85;;;;;;;2.18;90.16;101976.47;10463883;28;20480;-81
2022/01/19 15:24:44;;;;;;;57.05;38.20;;;;;;;2.25;90.24;101971.91;10500514;28;20055;-81
2022/01/19 15:29:44;;;;;;;55.43;36.83;;;;;;;2.27;90.32;101971.28;10495027;28;20023;-81
2022/01/19 15:34:45;;;;;;;60.42;38.15;;;;;;;2.30;89.66;101960.34;10499795;28;20059;-81
2022/01/19 15:39:49;;;;;;;69.18;34.10;;;;;;;2.38;89.70;101964.59;10489654;28;20041;-81
2022/01/19 15:44:53;;;;;;;60.10;36.85;;;;;;;2.35;89.45;101954.88;10503992;28;20028;-82
2022/01/19 15:49:58;;;;;;;59.35;36.28;;;;;;;2.40;89.21;101928.56;10497602;28;20078;-80
2022/01/19 15:55:09;;;;;;;60.97;37.85;;;;;;;2.41;89.33;101956.22;10488675;28;20074;-79
2022/01/19 16:00:15;;;;;;;67.43;38.85;;;;;;;2.41;89.35;101966.56;10506991;28;20103;-82
2022/01/19 16:05:21;;;;;;;62.63;35.30;;;;;;;2.43;89.37;101958.22;10512870;28;20460;-81
2022/01/19 16:10:36;;;;;;;68.45;36.13;;;;;;;2.36;89.52;101960.97;10512723;28;20049;-79
2022/01/19 16:15:43;;;;;;;57.60;39.00;;;;;;;2.37;90.08;101964.44;10491429;28;20044;-80
2022/01/19 16:20:48;;;;;;;70.40;38.97;;;;;;;2.35;90.61;101970.38;10510441;28;20548;-80
2022/01/19 16:26:09;;;;;;;74.30;43.22;;;;;;;2.39;90.52;101969.00;10495091;28;20365;-83
2022/01/19 16:31:20;;;;;;;76.38;45.58;;;;;;;2.36;91.28;101968.72;10479866;28;20094;-81
2022/01/19 16:36:23;;;;;;;78.82;50.83;;;;;;;2.33;91.65;101966.72;10490097;28;20044;-83
2022/01/19 16:41:34;;;;;;;77.67;49.20;;;;;;;2.36;91.86;101971.28;10476703;28;20384;-85
2022/01/19 16:46:58;;;;;;;75.70;50.90;;;;;;;2.34;91.96;101953.03;10494390;28;20032;-85
2022/01/19 16:52:00;;;;;;;103.93;56.65;;;;;;;2.32;92.51;101958.84;10481688;28;20491;-84
2022/01/19 16:57:20;;;;;;;91.20;54.35;;;;;;;2.33;92.90;101948.63;10505937;28;20040;-85
2022/01/19 17:02:24;;;;;;;86.45;53.90;;;;;;;2.37;92.97;101952.44;10497612;28;20458;-87
2022/01/19 17:07:28;;;;;;;90.68;55.80;;;;;;;2.35;93.35;101966.88;10476720;28;20107;-85
2022/01/19 17:12:34;;;;;;;90.20;52.97;;;;;;;2.38;93.43;101953.34;10468695;28;20024;-84
2022/01/19 17:17:50;;;;;;;94.25;53.20;;;;;;;2.48;93.08;101964.75;10503959;28;20021;-86
2022/01/19 17:22:54;;;;;;;96.97;55.10;;;;;;;2.52;93.10;101963.34;10499296;28;20126;-86
2022/01/19 17:27:56;;;;;;;;;;;;;;;2.52;93.25;101957.28;10499936;28;20024;-84
2022/01/19 17:32:59;;;;;;;98.43;54.40;;;;;;;2.51;93.33;101953.78;10496948;28;20305;-84
2022/01/19 17:38:05;;;;;;;94.22;55.90;;;;;;;2.55;93.71;101961.06;10490756;28;20093;-86
2022/01/19 17:43:39;;;;;;;85.43;52.25;;;;;;;2.54;93.68;101968.69;10477725;28;20190;-83
2022/01/19 17:54:36;;;;;;;111.47;60.70;;;;;;;2.55;94.03;101974.00;10471036;28;20063;-85
2022/01/19 17:59:40;;;;;;;110.63;61.65;;;;;;;2.63;93.92;101990.28;10469493;28;20123;-85
2022/01/19 18:04:47;;;;;;;122.55;68.47;;;;;;;2.69;94.30;101997.69;10475875;28;20125;-82
2022/01/19 18:09:54;;;;;;;109.10;61.63;;;;;;;2.70;93.94;101986.59;10486892;28;20101;-80
2022/01/19 18:15:03;;;;;;;103.13;61.58;;;;;;;2.67;93.79;101991.47;10493076;28;20035;-85
2022/01/19 18:20:06;;;;;;;117.93;60.40;;;;;;;2.73;93.88;102005.00;10495002;28;20028;-84
2022/01/19 18:25:07;;;;;;;120.13;67.72;;;;;;;2.76;93.99;101987.19;10491780;28;20044;-86
2022/01/19 18:30:13;;;;;;;125.05;70.88;;;;;;;2.74;94.42;101999.06;10474572;28;20036;-84
2022/01/19 18:35:19;;;;;;;119.00;64.13;;;;;;;2.80;94.26;101997.06;10493356;28;20124;-84
2022/01/19 18:40:27;;;;;;;129.63;65.47;;;;;;;2.86;94.03;101995.06;10475383;28;20044;-80
2022/01/19 18:45:35;;;;;;;105.40;62.50;;;;;;;2.86;94.84;102004.53;10500273;28;20564;-79
2022/01/19 18:50:42;;;;;;;115.75;63.33;;;;;;;2.91;94.36;102001.59;10505644;28;20027;-81
2022/01/19 18:55:48;;;;;;;108.18;59.30;;;;;;;2.99;94.91;102006.59;10505868;28;20032;-81
2022/01/19 19:00:50;;;;;;;111.35;61.30;;;;;;;3.01;94.43;101998.25;10504852;28;20036;-80
2022/01/19 19:06:09;;;;;;;125.50;64.25;;;;;;;3.07;94.71;102016.00;10505677;28;20507;-80
2022/01/19 19:11:21;;;;;;;113.93;63.42;;;;;;;3.11;94.56;102027.59;10504642;28;20032;-82
2022/01/19 19:16:26;;;;;;;107.93;63.17;;;;;;;3.13;94.32;102034.72;10506709;28;20067;-80
2022/01/19 19:21:30;;;;;;;112.50;61.38;;;;;;;3.12;94.71;102043.25;10482482;28;20040;-79
2022/01/19 19:26:43;;;;;;;101.35;57.80;;;;;;;3.19;95.05;102048.25;10504545;28;20039;-82
2022/01/19 19:31:49;;;;;;;100.25;57.08;;;;;;;3.17;94.68;102039.41;10500864;28;20491;-80
2022/01/19 19:36:58;;;;;;;107.97;63.47;;;;;;;3.26;94.66;102052.34;10501408;28;20028;-81
2022/01/19 19:42:08;;;;;;;96.43;55.92;;;;;;;3.27;94.82;102056.75;10503878;28;20476;-82
2022/01/19 19:47:13;;;;;;;99.03;60.00;;;;;;;3.29;95.22;102057.81;10497990;28;20424;-82
2022/01/19 19:52:38;;;;;;;100.72;56.10;;;;;;;3.34;94.79;102066.00;10474778;28;20048;-82
2022/01/19 19:57:42;;;;;;;96.95;57.00;;;;;;;3.46;94.71;102059.41;10499918;28;20032;-83
2022/01/19 20:02:44;;;;;;;94.38;55.03;;;;;;;3.38;94.71;102069.06;10483052;28;20369;-82
2022/01/19 20:07:45;;;;;;;101.97;52.38;;;;;;;3.28;94.92;102070.59;10498871;28;20036;-82
2022/01/19 20:12:47;;;;;;;104.93;51.43;;;;;;;3.25;95.18;102081.56;10459971;28;21785;-82
2022/01/19 20:17:53;;;;;;;98.32;52.03;;;;;;;3.20;94.91;102104.41;10498687;28;20040;-82
2022/01/19 20:23:00;;;;;;;95.65;53.58;;;;;;;3.05;94.49;102095.16;10482816;28;20059;-83
2022/01/19 20:28:20;;;;;;;88.05;50.75;;;;;;;2.97;94.92;102103.81;10483219;28;20047;-82
2022/01/19 20:33:23;;;;;;;129.10;69.28;;;;;;;2.95;95.10;102108.88;10498698;28;20104;-81
2022/01/19 20:38:25;;;;;;;93.40;52.25;;;;;;;2.92;95.09;102124.09;10497702;28;20475;-82
2022/01/19 20:43:35;;;;;;;93.38;49.50;;;;;;;2.93;95.13;102116.47;10497652;28;20036;-82
2022/01/19 20:48:55;;;;;;;88.20;51.00;;;;;;;2.88;95.02;102135.78;10498205;28;20469;-81
2022/01/19 20:54:23;;;;;;;99.05;48.80;;;;;;;2.86;95.33;102133.81;10480976;28;20051;-82
2022/01/19 20:59:33;;;;;;;87.22;40.25;;;;;;;2.69;95.19;102150.22;10496851;28;20036;-81
2022/01/19 21:04:42;;;;;;;84.95;39.10;;;;;;;2.47;95.41;102150.66;10495489;28;20396;-81
2022/01/19 21:09:51;;;;;;;81.45;35.53;;;;;;;2.29;95.23;102154.88;10469048;28;20123;-81
2022/01/19 21:14:54;;;;;;;70.20;29.80;;;;;;;2.19;94.99;102158.19;10496013;28;20432;-80
2022/01/19 21:20:05;;;;;;;91.50;27.95;;;;;;;2.14;94.97;102157.72;10495886;28;20115;-82
2022/01/19 21:25:15;;;;;;;56.63;23.23;;;;;;;2.10;95.19;102167.56;10493964;28;20044;-81
2022/01/19 21:30:33;;;;;;;53.22;21.48;;;;;;;2.09;95.47;102182.19;10491342;28;20090;-81
2022/01/19 21:35:43;;;;;;;69.05;23.85;;;;;;;2.09;95.28;102191.56;10464188;28;20067;-81
2022/01/19 21:40:47;;;;;;;48.38;20.92;;;;;;;1.92;95.59;102188.16;10479514;28;20408;-80
2022/01/19 21:45:59;;;;;;;70.05;21.88;;;;;;;1.77;95.38;102200.41;10495630;28;20089;-80
2022/01/19 21:51:05;;;;;;;56.72;24.00;;;;;;;1.58;95.04;102205.28;10495709;28;20115;-80
2022/01/19 21:56:15;;;;;;;49.15;21.30;;;;;;;1.48;95.44;102208.59;10495837;28;20490;-80
2022/01/19 22:01:18;;;;;;;74.60;21.83;;;;;;;1.36;95.14;102218.50;10495263;28;20050;-81
2022/01/19 22:06:20;;;;;;;42.15;17.10;;;;;;;1.22;94.89;102217.03;10492075;28;20401;-82
2022/01/19 22:11:24;;;;;;;49.60;18.20;;;;;;;1.16;95.11;102224.13;10494108;28;20105;-83
2022/01/19 22:16:25;;;;;;;46.10;18.38;;;;;;;0.99;95.01;102219.72;10493535;28;20032;-82
2022/01/19 22:21:27;;;;;;;49.53;19.33;;;;;;;0.94;95.19;102223.47;10493554;28;20071;-83
2022/01/19 22:26:40;;;;;;;46.50;18.50;;;;;;;0.82;95.43;102239.41;10494711;28;20035;-82
2022/01/19 22:31:46;;;;;;;57.42;21.60;;;;;;;0.78;95.03;102236.38;10492761;28;20472;-83
2022/01/19 22:37:01;;;;;;;52.42;20.90;;;;;;;0.66;95.03;102239.44;10491929;28;20072;-82
2022/01/19 22:42:10;;;;;;;60.95;17.25;;;;;;;0.64;95.45;102240.00;10494361;28;20137;-82
2022/01/19 22:47:14;;;;;;;64.25;19.30;;;;;;;0.77;95.64;102242.25;10478627;28;20036;-83
2022/01/19 22:52:21;;;;;;;36.25;16.50;;;;;;;0.82;95.34;102242.00;10493628;28;20032;-82
2022/01/19 22:57:29;;;;;;;58.65;15.45;;;;;;;0.83;95.60;102242.94;10486320;28;20052;-82
2022/01/19 23:02:35;;;;;;;43.95;14.35;;;;;;;0.68;95.34;102252.47;10478784;28;20044;-83
2022/01/19 23:07:42;;;;;;;32.20;11.48;;;;;;;0.55;95.11;102253.69;10494321;28;20100;-83
2022/01/19 23:12:50;;;;;;;43.53;12.52;;;;;;;0.37;95.22;102265.47;10492311;28;20031;-83
2022/01/19 23:17:52;;;;;;;51.95;18.02;;;;;;;0.31;95.40;102262.22;10492406;28;20047;-82
2022/01/19 23:23:13;;;;;;;59.05;15.85;;;;;;;0.37;95.62;102256.81;10478739;28;20366;-82
2022/01/19 23:28:22;;;;;;;39.83;12.20;;;;;;;0.56;95.55;102263.25;10492576;28;20028;-83
2022/01/19 23:33:27;;;;;;;49.78;14.52;;;;;;;0.56;96.06;102273.56;10525255;28;20030;-83
2022/01/19 23:38:57;;;;;;;51.05;13.63;;;;;;;0.52;95.48;102284.28;10483314;28;20043;-83
2022/01/19 23:49:26;;;;;;;47.17;14.93;;;;;;;0.47;95.73;102303.47;10501046;28;20059;-83
2022/01/19 23:54:27;;;;;;;37.90;13.60;;;;;;;0.45;96.08;102310.09;10498565;28;20098;-83
2022/01/19 23:59:32;;;;;;;37.67;12.07;;;;;;;0.56;95.70;102307.06;10475352;28;20035;-83
